Time;durP1;ratioP1;P1;durP2;ratioP2;P2;SDS_P1;SDS_P2;PMS_P1;PMS_P2;Temp;Humidity;BMP_temperature;BMP_pressure;BME280_temperature;BME280_humidity;BME280_pressure;Samples;Min_cycle;Max_cycle;Signal;HPM_P1;HPM_P2
2024/02/19 00:01:09;;;;;;;17.50;11.25;;;5.40;99.90;;;;;;4989161;28;20367;-51
2024/02/19 00:03:35;;;;;;;17.02;11.43;;;5.30;99.90;;;;;;4979022;28;20060;-51
2024/02/19 00:06:01;;;;;;;14.00;11.10;;;5.20;99.90;;;;;;4953242;28;20105;-51
2024/02/19 00:08:27;;;;;;;16.63;11.38;;;5.40;99.90;;;;;;4980186;28;20038;-53
2024/02/19 00:10:52;;;;;;;16.40;11.60;;;5.20;99.90;;;;;;4933259;28;20034;-53
2024/02/19 00:13:18;;;;;;;20.55;12.60;;;5.10;99.90;;;;;;4987431;28;20056;-52
2024/02/19 00:15:44;;;;;;;14.43;9.70;;;5.10;99.90;;;;;;4989046;28;20073;-52
2024/02/19 00:18:10;;;;;;;15.63;11.70;;;5.10;99.90;;;;;;4983243;28;20046;-51
2024/02/19 00:20:37;;;;;;;14.80;10.27;;;;;;;;;;4981290;28;20039;-51
2024/02/19 00:23:02;;;;;;;17.25;9.52;;;5.00;99.90;;;;;;4990178;28;20032;-52
2024/02/19 00:25:30;;;;;;;15.73;10.70;;;5.00;99.90;;;;;;4949353;28;20495;-51
2024/02/19 00:27:55;;;;;;;16.25;10.85;;;5.20;99.90;;;;;;4984562;28;20363;-51
2024/02/19 00:30:21;;;;;;;11.35;9.20;;;5.20;99.90;;;;;;4977952;28;20031;-52
2024/02/19 00:32:47;;;;;;;14.38;9.77;;;5.20;99.90;;;;;;4987667;28;20486;-52
2024/02/19 00:35:13;;;;;;;15.27;10.05;;;5.20;99.90;;;;;;4981979;28;20038;-52
2024/02/19 00:37:38;;;;;;;13.77;9.43;;;5.20;99.90;;;;;;4929348;28;20047;-52
2024/02/19 00:40:05;;;;;;;12.98;9.93;;;5.20;99.90;;;;;;4962635;28;20134;-52
2024/02/19 00:42:30;;;;;;;13.15;9.25;;;5.10;99.90;;;;;;4986625;28;20030;-52
2024/02/19 00:44:56;;;;;;;13.48;10.43;;;4.90;99.90;;;;;;4981796;28;20034;-52
2024/02/19 00:47:22;;;;;;;15.68;11.02;;;4.80;99.90;;;;;;4984530;28;20065;-51
2024/02/19 00:49:49;;;;;;;14.57;9.00;;;4.70;99.90;;;;;;4979095;28;20038;-51
2024/02/19 00:52:14;;;;;;;8.93;7.47;;;3.80;99.90;;;;;;4981930;28;20053;-51
2024/02/19 00:54:43;;;;;;;10.75;7.95;;;4.30;99.90;;;;;;4982945;28;20046;-52
2024/02/19 00:57:09;;;;;;;11.77;8.43;;;4.10;99.90;;;;;;4987222;28;20042;-52
2024/02/19 00:59:35;;;;;;;12.05;8.90;;;4.10;99.90;;;;;;4983714;28;20031;-51
2024/02/19 01:02:00;;;;;;;12.98;8.90;;;4.10;99.90;;;;;;4983249;28;20019;-52
2024/02/19 01:04:26;;;;;;;13.13;8.68;;;4.10;99.90;;;;;;4935533;28;20502;-53
2024/02/19 01:06:52;;;;;;;14.05;9.88;;;4.20;99.90;;;;;;4988012;28;20097;-51
2024/02/19 01:09:17;;;;;;;14.00;10.70;;;4.30;99.90;;;;;;4980174;28;20038;-53
2024/02/19 01:11:43;;;;;;;15.50;11.18;;;4.30;99.90;;;;;;4934149;28;20154;-57
2024/02/19 01:14:09;;;;;;;12.65;9.07;;;4.40;99.90;;;;;;4986719;28;20557;-52
2024/02/19 01:16:34;;;;;;;16.25;10.35;;;4.40;99.90;;;;;;4986620;28;20109;-52
2024/02/19 01:19:00;;;;;;;14.50;10.23;;;4.40;99.90;;;;;;4983211;28;20509;-50
2024/02/19 01:21:26;;;;;;;14.73;9.98;;;4.50;99.90;;;;;;4980227;28;20553;-51
2024/02/19 01:23:52;;;;;;;14.63;10.68;;;4.40;99.90;;;;;;4965602;28;20049;-51
2024/02/19 01:26:20;;;;;;;15.02;10.30;;;4.40;99.90;;;;;;4984901;28;20030;-51
2024/02/19 01:28:47;;;;;;;14.27;10.23;;;4.40;99.90;;;;;;4985862;28;20058;-52
2024/02/19 01:31:13;;;;;;;13.73;10.90;;;4.30;99.90;;;;;;4981852;28;20059;-52
2024/02/19 01:33:39;;;;;;;18.63;14.40;;;4.50;99.90;;;;;;4987729;28;20062;-52
2024/02/19 01:36:06;;;;;;;20.20;14.25;;;;;;;;;;4986494;28;20033;-54
2024/02/19 01:38:32;;;;;;;17.98;13.35;;;5.40;99.90;;;;;;4982148;28;20026;-52
2024/02/19 01:40:58;;;;;;;18.67;13.90;;;5.30;99.90;;;;;;4981295;28;20062;-52
2024/02/19 01:43:24;;;;;;;20.98;14.93;;;5.50;99.90;;;;;;4991859;28;20490;-52
2024/02/19 01:45:49;;;;;;;19.00;14.90;;;5.70;99.90;;;;;;4989366;28;20069;-52
2024/02/19 01:48:16;;;;;;;19.63;14.18;;;5.80;99.90;;;;;;4990162;28;20042;-51
2024/02/19 01:50:45;;;;;;;20.73;14.40;;;5.90;99.90;;;;;;4991419;28;20085;-51
2024/02/19 01:53:12;;;;;;;17.85;13.57;;;5.90;99.90;;;;;;4991445;28;20062;-52
2024/02/19 01:55:40;;;;;;;21.50;15.07;;;6.00;99.90;;;;;;4986483;28;20054;-50
2024/02/19 01:58:07;;;;;;;20.30;15.65;;;6.10;99.90;;;;;;4981559;28;20439;-52
2024/02/19 02:00:33;;;;;;;18.55;13.90;;;6.10;99.90;;;;;;4989614;28;20035;-51
2024/02/19 02:03:00;;;;;;;16.92;14.02;;;;;;;;;;4982418;28;20026;-51
2024/02/19 02:05:25;;;;;;;15.48;12.18;;;6.30;99.90;;;;;;4986400;28;20054;-52
2024/02/19 02:07:52;;;;;;;20.02;14.65;;;6.40;99.90;;;;;;4991701;28;20501;-51
2024/02/19 02:10:20;;;;;;;17.40;13.32;;;6.00;99.90;;;;;;4988703;28;20046;-52
2024/02/19 02:12:46;;;;;;;15.85;12.52;;;6.10;99.90;;;;;;4948885;28;20507;-52
2024/02/19 02:15:12;;;;;;;13.50;11.43;;;5.80;99.90;;;;;;4992641;28;20038;-53
2024/02/19 02:17:38;;;;;;;13.30;10.40;;;5.80;99.90;;;;;;4987186;28;20023;-51
2024/02/19 02:20:04;;;;;;;11.88;9.80;;;5.60;99.90;;;;;;4946040;28;20533;-51
2024/02/19 02:22:30;;;;;;;12.35;9.52;;;5.00;99.90;;;;;;4925660;28;20497;-51
2024/02/19 02:24:56;;;;;;;14.70;10.68;;;4.70;99.90;;;;;;4987508;28;20137;-51
2024/02/19 02:27:21;;;;;;;14.45;9.85;;;4.30;99.90;;;;;;4986645;28;20482;-52
2024/02/19 02:29:47;;;;;;;15.00;11.18;;;4.00;99.90;;;;;;4982525;28;20451;-53
2024/02/19 02:32:13;;;;;;;20.88;13.55;;;3.70;99.90;;;;;;4945914;28;20074;-51
2024/02/19 02:34:39;;;;;;;19.67;12.77;;;3.60;99.90;;;;;;4907879;28;20042;-51
2024/02/19 02:37:04;;;;;;;20.73;12.98;;;3.40;99.90;;;;;;4982151;28;20037;-51
2024/02/19 02:39:31;;;;;;;17.83;12.40;;;3.30;99.90;;;;;;4981503;28;20057;-51
2024/02/19 02:41:57;;;;;;;15.50;11.15;;;3.40;99.90;;;;;;4987205;28;20030;-52
2024/02/19 02:44:23;;;;;;;15.63;10.98;;;3.40;99.90;;;;;;4986130;28;20044;-53
2024/02/19 02:46:48;;;;;;;16.67;11.95;;;3.60;99.90;;;;;;4994054;28;20049;-51
2024/02/19 02:49:14;;;;;;;15.55;10.60;;;3.50;99.90;;;;;;4953978;28;20046;-51
2024/02/19 02:51:40;;;;;;;16.65;11.15;;;3.50;99.90;;;;;;4988268;28;20033;-52
2024/02/19 02:54:06;;;;;;;17.05;9.88;;;3.30;99.90;;;;;;4982690;28;20430;-51
2024/02/19 02:56:32;;;;;;;15.80;11.65;;;3.10;99.90;;;;;;4993326;28;20426;-53
2024/02/19 02:58:58;;;;;;;17.02;10.25;;;3.00;99.90;;;;;;4985404;28;20042;-50
2024/02/19 03:01:29;;;;;;;18.05;11.13;;;2.80;99.90;;;;;;4989888;28;20026;-51
2024/02/19 03:03:56;;;;;;;13.52;9.93;;;2.80;99.90;;;;;;4988233;28;20390;-53
2024/02/19 03:06:22;;;;;;;11.68;8.05;;;2.70;99.90;;;;;;4981293;28;20031;-51
2024/02/19 03:08:47;;;;;;;12.48;8.70;;;2.60;99.90;;;;;;4984582;28;20069;-53
2024/02/19 03:11:13;;;;;;;12.48;9.15;;;2.60;99.90;;;;;;4966016;28;20483;-51
2024/02/19 03:13:39;;;;;;;15.13;10.43;;;2.50;99.90;;;;;;4981444;28;20031;-50
2024/02/19 03:16:06;;;;;;;12.75;9.35;;;2.70;99.90;;;;;;4981205;28;20117;-51
2024/02/19 03:18:35;;;;;;;15.40;9.70;;;2.80;99.90;;;;;;4903827;28;20038;-51
2024/02/19 03:21:01;;;;;;;15.15;10.52;;;2.80;99.90;;;;;;4988649;28;20128;-52
2024/02/19 03:23:28;;;;;;;16.55;10.60;;;3.10;99.90;;;;;;4988332;28;20086;-52
2024/02/19 03:25:54;;;;;;;16.63;10.45;;;3.60;99.90;;;;;;4984476;28;20027;-52
2024/02/19 03:28:19;;;;;;;20.13;11.23;;;4.00;99.90;;;;;;4977506;28;20046;-51
2024/02/19 03:30:46;;;;;;;15.73;10.20;;;;;;;;;;4985019;28;20038;-52
2024/02/19 03:33:12;;;;;;;15.48;10.98;;;4.60;99.90;;;;;;4955768;28;20034;-52
2024/02/19 03:35:38;;;;;;;15.38;10.25;;;4.70;99.90;;;;;;4981098;28;20042;-50
2024/02/19 03:38:03;;;;;;;16.25;10.98;;;4.80;99.90;;;;;;4987727;28;20036;-52
2024/02/19 03:40:29;;;;;;;33.25;12.32;;;4.90;99.90;;;;;;4986673;28;20042;-52
2024/02/19 03:42:55;;;;;;;65.28;18.35;;;5.00;99.90;;;;;;4987907;28;20034;-51
2024/02/19 03:45:21;;;;;;;35.83;16.33;;;5.10;99.90;;;;;;4934994;28;20050;-51
2024/02/19 03:47:47;;;;;;;22.52;12.55;;;5.30;99.90;;;;;;4981114;28;20038;-51
2024/02/19 03:50:13;;;;;;;20.30;11.30;;;5.30;99.90;;;;;;4987726;28;20037;-51
2024/02/19 03:52:39;;;;;;;17.38;12.00;;;5.20;99.90;;;;;;4985762;28;20035;-52
2024/02/19 03:55:05;;;;;;;20.70;12.20;;;5.20;99.90;;;;;;4984304;28;20039;-51
2024/02/19 03:57:31;;;;;;;17.63;12.68;;;;;;;;;;4952983;28;20128;-52
2024/02/19 03:59:57;;;;;;;19.40;11.82;;;5.20;99.90;;;;;;4981843;28;20026;-51
2024/02/19 04:02:24;;;;;;;21.00;12.65;;;5.30;99.90;;;;;;4983873;28;20037;-51
2024/02/19 04:04:50;;;;;;;25.15;13.63;;;5.30;99.90;;;;;;4982758;28;20041;-52
2024/02/19 04:07:16;;;;;;;21.90;12.15;;;5.30;99.90;;;;;;4979501;28;20153;-52
2024/02/19 04:09:42;;;;;;;19.42;12.63;;;5.30;99.90;;;;;;4982211;28;20031;-52
2024/02/19 04:12:10;;;;;;;20.33;13.18;;;5.40;99.90;;;;;;4988343;28;20113;-52
2024/02/19 04:14:40;;;;;;;22.10;14.38;;;5.30;99.90;;;;;;4984767;28;20493;-51
2024/02/19 04:17:06;;;;;;;19.48;12.63;;;5.50;99.90;;;;;;4985371;28;20363;-52
2024/02/19 04:19:32;;;;;;;18.98;11.55;;;5.40;99.90;;;;;;4984634;28;20058;-52
2024/02/19 04:21:57;;;;;;;18.40;11.85;;;5.60;99.90;;;;;;4986283;28;20026;-52
2024/02/19 04:24:23;;;;;;;13.85;10.02;;;;;;;;;;4987066;28;20493;-52
2024/02/19 04:26:50;;;;;;;16.95;10.85;;;;;;;;;;4982357;28;20386;-51
2024/02/19 04:29:16;;;;;;;14.45;11.38;;;;;;;;;;4985955;28;20117;-51
2024/02/19 04:31:43;;;;;;;15.15;11.48;;;;;;;;;;4986760;28;20467;-52
2024/02/19 04:34:09;;;;;;;15.45;11.02;;;;;;;;;;4981595;28;20038;-53
2024/02/19 04:36:35;;;;;;;14.90;10.18;;;;;;;;;;4987564;28;20019;-51
2024/02/19 04:39:01;;;;;;;15.02;10.57;;;;;;;;;;4947767;28;20093;-53
2024/02/19 04:41:27;;;;;;;18.08;11.20;;;;;;;;;;4982696;28;20153;-51
2024/02/19 04:43:53;;;;;;;17.27;11.88;;;;;;;;;;4985955;28;20041;-51
2024/02/19 04:46:19;;;;;;;18.83;11.98;;;5.70;99.90;;;;;;4986447;28;20035;-51
2024/02/19 04:48:45;;;;;;;18.73;13.43;;;5.70;99.90;;;;;;4950051;28;20053;-53
2024/02/19 04:51:11;;;;;;;22.38;14.02;;;5.80;99.90;;;;;;4987972;28;20058;-52
2024/02/19 04:53:36;;;;;;;22.20;13.20;;;5.80;99.90;;;;;;4985212;28;20042;-51
2024/02/19 04:56:02;;;;;;;19.70;11.98;;;5.80;99.90;;;;;;4989131;28;20027;-52
2024/02/19 04:58:28;;;;;;;18.40;12.23;;;5.90;99.90;;;;;;4985818;28;20033;-52
2024/02/19 05:00:54;;;;;;;17.55;12.93;;;;;;;;;;4980800;28;20387;-52
2024/02/19 05:03:20;;;;;;;17.10;12.88;;;;;;;;;;4980272;28;20034;-52
2024/02/19 05:05:46;;;;;;;20.55;13.88;;;;;;;;;;4983556;28;20490;-52
2024/02/19 05:08:13;;;;;;;25.52;15.75;;;;;;;;;;4984150;28;20038;-51
2024/02/19 05:10:39;;;;;;;20.10;15.02;;;;;;;;;;4984572;28;20030;-52
2024/02/19 05:13:05;;;;;;;21.00;14.35;;;;;;;;;;4986453;28;20035;-53
2024/02/19 05:15:31;;;;;;;30.73;15.65;;;;;;;;;;4987857;28;20559;-52
2024/02/19 05:17:57;;;;;;;27.00;14.60;;;;;;;;;;4984716;28;20410;-50
2024/02/19 05:20:26;;;;;;;29.33;17.20;;;;;;;;;;4982396;28;20039;-52
2024/02/19 05:22:52;;;;;;;32.08;18.05;;;;;;;;;;4992512;28;20022;-51
2024/02/19 05:25:18;;;;;;;35.20;15.25;;;6.10;99.90;;;;;;4988500;28;20038;-53
2024/02/19 05:27:44;;;;;;;35.22;17.15;;;6.20;99.90;;;;;;4986583;28;20054;-52
2024/02/19 05:30:32;;;;;;;38.13;18.35;;;6.20;99.90;;;;;;4984423;28;20382;-51
2024/02/19 05:32:57;;;;;;;26.02;17.80;;;6.10;99.90;;;;;;4904910;29;20055;-53
2024/02/19 05:35:43;;;;;;;26.25;18.33;;;6.20;99.90;;;;;;4896033;29;20041;-51
2024/02/19 05:38:09;;;;;;;34.17;25.33;;;6.20;99.90;;;;;;4897181;29;20060;-51
2024/02/19 05:40:35;;;;;;;51.22;37.63;;;5.90;99.90;;;;;;4895500;29;20044;-53
2024/02/19 05:43:01;;;;;;;65.88;43.10;;;5.90;99.90;;;;;;4897372;29;20048;-51
2024/02/19 05:45:26;;;;;;;79.22;49.30;;;6.00;99.90;;;;;;4889813;29;20119;-53
2024/02/19 05:47:52;;;;;;;79.55;45.67;;;6.00;99.90;;;;;;4895029;29;20134;-51
2024/02/19 05:50:18;;;;;;;54.15;32.90;;;6.10;99.90;;;;;;4839030;29;20052;-51
2024/02/19 05:52:44;;;;;;;49.40;27.73;;;6.10;99.90;;;;;;4896665;29;20032;-52
2024/02/19 05:55:09;;;;;;;56.70;30.42;;;6.20;99.90;;;;;;4887643;29;20060;-52
2024/02/19 05:57:37;;;;;;;60.83;28.30;;;6.20;99.90;;;;;;4895649;29;20138;-51
2024/02/19 06:00:05;;;;;;;38.03;22.45;;;6.20;99.90;;;;;;4897337;29;20048;-52
2024/02/19 06:02:31;;;;;;;31.58;23.83;;;6.30;99.90;;;;;;4862959;29;20079;-51
2024/02/19 06:04:56;;;;;;;27.38;22.38;;;6.10;99.90;;;;;;4891448;29;20541;-53
2024/02/19 06:07:22;;;;;;;33.42;24.17;;;6.10;99.90;;;;;;4897585;29;20500;-52
2024/02/19 06:09:48;;;;;;;30.48;22.40;;;6.20;99.90;;;;;;4901691;29;20039;-51
2024/02/19 06:12:14;;;;;;;26.63;18.52;;;;;;;;;;4934684;28;20044;-53
2024/02/19 06:14:41;;;;;;;28.65;16.60;;;;;;;;;;4993719;28;20026;-51
2024/02/19 06:17:07;;;;;;;78.40;33.67;;;;;;;;;;4955560;28;20048;-54
2024/02/19 06:19:32;;;;;;;83.57;35.97;;;12.00;99.90;;;;;;4992261;28;20038;-51
2024/02/19 06:21:58;;;;;;;78.18;32.65;;;12.20;95.10;;;;;;4957903;28;20130;-55
2024/02/19 06:24:24;;;;;;;71.90;35.15;;;;;;;;;;4983066;28;20529;-56
2024/02/19 06:26:50;;;;;;;69.57;31.67;;;;;;;;;;4981949;28;20046;-57
2024/02/19 06:29:16;;;;;;;45.65;25.35;;;;;;;;;;4982427;28;20030;-56
2024/02/19 06:31:44;;;;;;;16.00;12.32;;;;;;;;;;4987930;28;20085;-56
2024/02/19 06:34:10;;;;;;;11.88;9.07;;;;;;;;;;4983287;28;20037;-53
2024/02/19 06:36:36;;;;;;;16.23;10.85;;;;;;;;;;4984300;28;20023;-56
2024/02/19 06:39:02;;;;;;;13.10;10.52;;;;;;;;;;4984621;28;20066;-59
2024/02/19 06:41:28;;;;;;;48.80;28.50;;;;;;;;;;4982194;28;20033;-59
2024/02/19 06:43:54;;;;;;;50.63;31.00;;;;;;;;;;4995072;28;20038;-51
2024/02/19 06:46:21;;;;;;;57.25;34.10;;;;;;;;;;4919873;28;20035;-52
2024/02/19 06:48:47;;;;;;;42.83;27.15;;;;;;;;;;4985972;28;20039;-56
2024/02/19 06:51:12;;;;;;;49.60;32.25;;;13.90;99.90;;;;;;4932419;28;20046;-59
2024/02/19 06:53:38;;;;;;;39.92;28.52;;;;;;;;;;4984688;28;20375;-58
2024/02/19 06:56:07;;;;;;;27.08;22.70;;;;;;;;;;4987563;28;20065;-61
2024/02/19 06:58:34;;;;;;;27.88;22.10;;;;;;;;;;4954849;28;20043;-57
2024/02/19 07:01:02;;;;;;;24.80;19.77;;;;;;;;;;4984949;28;20026;-55
2024/02/19 07:03:30;;;;;;;23.65;17.33;;;;;;;;;;4984039;28;20177;-64
2024/02/19 07:05:56;;;;;;;20.10;15.88;;;;;;;;;;4984490;28;20034;-52
2024/02/19 07:08:23;;;;;;;17.65;13.15;;;;;;;;;;4982458;28;20034;-58
2024/02/19 07:10:49;;;;;;;18.90;14.65;;;;;;;;;;4952662;28;20129;-62
2024/02/19 07:13:15;;;;;;;16.25;14.35;;;;;;;;;;4983267;28;20437;-58
2024/02/19 07:15:41;;;;;;;18.52;15.60;;;;;;;;;;4985137;28;20037;-53
2024/02/19 07:18:07;;;;;;;16.92;14.93;;;;;;;;;;4936082;28;20049;-58
2024/02/19 07:20:33;;;;;;;22.15;13.73;;;;;;;;;;4948910;28;20051;-56
2024/02/19 07:23:00;;;;;;;21.85;14.90;;;;;;;;;;4986548;28;20031;-55
2024/02/19 07:25:26;;;;;;;18.80;15.98;;;;;;;;;;4980801;28;20033;-52
2024/02/19 07:27:52;;;;;;;17.05;14.00;;;;;;;;;;4984634;28;20483;-55
2024/02/19 07:30:18;;;;;;;17.85;14.02;;;;;;;;;;4981467;28;20050;-58
2024/02/19 07:32:44;;;;;;;21.17;18.98;;;;;;;;;;4983652;28;20084;-55
2024/02/19 07:35:11;;;;;;;18.25;15.80;;;;;;;;;;4983494;28;20086;-56
2024/02/19 07:37:37;;;;;;;18.75;14.75;;;;;;;;;;4964912;28;20041;-60
2024/02/19 07:40:04;;;;;;;18.85;16.05;;;;;;;;;;4937728;28;20031;-55
2024/02/19 07:42:30;;;;;;;18.20;16.38;;;;;;;;;;4967002;28;20229;-58
2024/02/19 07:44:56;;;;;;;25.10;22.50;;;26.30;69.30;;;;;;4992275;28;20022;-52
2024/02/19 07:47:21;;;;;;;23.30;20.30;;;25.90;70.10;;;;;;4985659;28;20659;-53
2024/02/19 07:49:47;;;;;;;24.70;20.85;;;25.70;69.40;;;;;;4985013;28;20041;-49
2024/02/19 07:52:13;;;;;;;23.45;18.20;;;;;;;;;;4948853;28;20046;-56
2024/02/19 07:54:39;;;;;;;18.83;16.92;;;27.60;68.50;;;;;;4950305;28;20510;-55
2024/02/19 07:57:06;;;;;;;20.52;18.02;;;;;;;;;;4961780;28;20037;-51
2024/02/19 07:59:32;;;;;;;22.83;17.83;;;;;;;;;;4959954;28;20070;-52
2024/02/19 08:01:59;;;;;;;22.77;18.23;;;28.50;67.20;;;;;;4956210;28;20039;-58
2024/02/19 08:04:27;;;;;;;20.38;18.27;;;28.60;67.20;;;;;;4966837;28;20039;-56
2024/02/19 08:06:53;;;;;;;20.13;17.80;;;28.60;66.90;;;;;;4960926;28;20078;-52
2024/02/19 08:09:19;;;;;;;16.52;14.82;;;28.60;67.00;;;;;;4967306;28;20651;-57
2024/02/19 08:11:45;;;;;;;20.10;15.57;;;28.50;66.80;;;;;;4967728;28;20030;-57
2024/02/19 08:14:11;;;;;;;16.30;14.10;;;;;;;;;;4967912;28;20034;-58
2024/02/19 08:16:37;;;;;;;18.00;16.20;;;28.80;66.30;;;;;;4967283;28;20030;-58
2024/02/19 08:19:04;;;;;;;16.73;15.02;;;28.40;66.70;;;;;;4957952;28;20046;-51
2024/02/19 08:21:29;;;;;;;15.88;14.27;;;28.60;66.80;;;;;;4965839;28;20474;-54
2024/02/19 08:23:55;;;;;;;14.55;13.15;;;28.50;66.70;;;;;;4968262;28;20030;-55
2024/02/19 08:26:22;;;;;;;15.18;13.43;;;28.60;66.70;;;;;;4960836;28;20353;-60
2024/02/19 08:28:47;;;;;;;14.07;12.68;;;28.40;66.50;;;;;;4967274;28;20041;-51
2024/02/19 08:31:13;;;;;;;17.98;14.13;;;28.30;66.40;;;;;;4962781;28;20373;-50
2024/02/19 08:33:39;;;;;;;13.32;11.95;;;28.30;66.60;;;;;;4961557;28;20122;-53
2024/02/19 08:36:05;;;;;;;14.30;13.00;;;28.10;66.30;;;;;;4973538;28;20100;-58
2024/02/19 08:38:31;;;;;;;16.23;14.20;;;;;;;;;;4916180;28;20066;-56
2024/02/19 08:40:57;;;;;;;15.70;14.20;;;28.30;65.60;;;;;;4924746;28;20129;-54
2024/02/19 08:43:23;;;;;;;13.55;12.25;;;;;;;;;;4957332;28;20118;-54
2024/02/19 08:45:49;;;;;;;13.25;12.02;;;28.40;65.60;;;;;;4965470;28;20038;-54
2024/02/19 08:48:15;;;;;;;21.20;12.85;;;28.60;66.00;;;;;;4971833;28;20034;-53
2024/02/19 08:50:43;;;;;;;12.07;10.40;;;28.30;65.50;;;;;;4970499;28;20031;-56
2024/02/19 08:53:08;;;;;;;13.85;12.45;;;27.90;65.70;;;;;;4972800;28;20069;-55
2024/02/19 08:55:34;;;;;;;14.10;12.70;;;27.40;65.30;;;;;;4983623;28;20562;-52
2024/02/19 08:58:00;;;;;;;12.40;11.30;;;27.40;65.80;;;;;;4984880;28;20025;-49
2024/02/19 09:00:25;;;;;;;11.90;10.85;;;27.40;66.70;;;;;;4986908;28;20037;-54
2024/02/19 09:02:52;;;;;;;13.55;11.05;;;28.00;66.40;;;;;;4986764;28;20026;-51
2024/02/19 09:05:19;;;;;;;12.40;11.20;;;27.20;66.00;;;;;;4990790;28;20027;-52
2024/02/19 09:07:46;;;;;;;13.35;11.95;;;27.70;66.40;;;;;;4953907;28;20054;-49
2024/02/19 09:10:11;;;;;;;11.50;10.35;;;27.40;65.60;;;;;;4933179;28;20479;-55
2024/02/19 09:12:37;;;;;;;12.48;11.27;;;27.00;65.90;;;;;;4992000;28;20026;-52
2024/02/19 09:15:04;;;;;;;15.57;13.13;;;27.20;65.10;;;;;;4959588;28;20031;-55
2024/02/19 09:17:30;;;;;;;17.02;14.27;;;27.80;65.50;;;;;;4941182;28;20052;-59
2024/02/19 09:19:56;;;;;;;14.85;13.35;;;27.50;65.30;;;;;;4992076;28;20526;-53
2024/02/19 09:22:22;;;;;;;19.42;14.98;;;27.50;65.30;;;;;;4994811;28;20018;-54
2024/02/19 09:24:50;;;;;;;14.27;12.77;;;27.50;65.90;;;;;;4984618;28;20035;-54
2024/02/19 09:27:16;;;;;;;15.05;13.48;;;26.60;65.60;;;;;;4984443;28;20438;-53
2024/02/19 09:29:42;;;;;;;14.27;12.88;;;27.90;66.30;;;;;;4983608;28;20070;-63
2024/02/19 09:32:08;;;;;;;14.93;13.30;;;27.90;65.80;;;;;;4991110;28;20088;-57
2024/02/19 09:34:35;;;;;;;18.63;15.40;;;27.10;65.60;;;;;;4980720;28;20541;-56
2024/02/19 09:37:02;;;;;;;30.80;22.98;;;27.30;65.80;;;;;;4982079;28;20109;-59
2024/02/19 09:39:28;;;;;;;25.75;23.02;;;27.50;65.90;;;;;;4986361;28;20037;-55
2024/02/19 09:41:54;;;;;;;23.40;19.23;;;26.90;66.20;;;;;;4989441;28;20038;-54
2024/02/19 09:44:20;;;;;;;16.25;13.57;;;27.00;66.20;;;;;;4925711;28;20037;-60
2024/02/19 09:46:51;;;;;;;16.88;15.18;;;27.00;66.40;;;;;;4950469;28;20394;-55
2024/02/19 09:49:21;;;;;;;21.48;17.95;;;27.40;66.90;;;;;;4989260;28;20101;-59
2024/02/19 09:51:54;;;;;;;17.35;15.20;;;27.20;66.50;;;;;;4987062;28;20041;-62
2024/02/19 09:54:21;;;;;;;19.83;17.67;;;27.90;66.00;;;;;;4987945;28;20065;-59
2024/02/19 09:56:50;;;;;;;22.27;18.65;;;27.70;66.30;;;;;;4990857;28;20030;-54
2024/02/19 09:59:17;;;;;;;19.83;17.70;;;28.10;65.90;;;;;;4988198;28;20433;-61
2024/02/19 10:01:42;;;;;;;19.00;17.02;;;27.50;65.50;;;;;;4956075;28;20045;-59
2024/02/19 10:04:10;;;;;;;18.55;15.68;;;27.80;65.40;;;;;;4988258;28;20034;-54
2024/02/19 10:06:36;;;;;;;19.25;17.35;;;28.10;65.50;;;;;;4988807;28;20379;-61
2024/02/19 10:09:08;;;;;;;28.48;22.98;;;28.20;64.70;;;;;;4988794;28;20027;-57
2024/02/19 10:11:38;;;;;;;44.45;28.85;;;28.60;65.40;;;;;;4983540;28;20035;-58
2024/02/19 10:14:04;;;;;;;26.02;22.33;;;28.10;65.10;;;;;;4975034;28;20054;-54
2024/02/19 10:16:30;;;;;;;23.20;19.15;;;27.60;65.40;;;;;;4988059;28;20027;-62
2024/02/19 10:19:06;;;;;;;22.30;18.60;;;27.20;65.70;;;;;;4988471;28;20129;-55
2024/02/19 10:21:32;;;;;;;15.90;13.27;;;27.60;65.60;;;;;;4987783;28;20483;-51
2024/02/19 10:23:58;;;;;;;16.75;14.45;;;26.80;64.80;;;;;;4986803;28;20030;-57
2024/02/19 10:26:23;;;;;;;15.38;13.77;;;27.30;65.30;;;;;;4987996;28;20418;-61
2024/02/19 10:28:57;;;;;;;16.73;14.18;;;27.20;65.00;;;;;;4989378;28;20053;-61
2024/02/19 10:31:23;;;;;;;17.10;14.18;;;27.60;65.60;;;;;;4983285;28;20483;-54
2024/02/19 10:33:50;;;;;;;14.65;13.20;;;27.20;65.50;;;;;;4990880;28;20363;-60
2024/02/19 10:36:19;;;;;;;15.50;13.90;;;26.90;65.40;;;;;;4986957;28;20031;-61
2024/02/19 10:38:46;;;;;;;14.25;12.82;;;26.90;66.20;;;;;;4989063;28;20381;-55
2024/02/19 10:41:13;;;;;;;13.98;12.40;;;26.50;65.80;;;;;;4987630;28;20022;-54
2024/02/19 10:43:38;;;;;;;13.05;11.65;;;26.80;66.00;;;;;;4991081;28;20030;-58
2024/02/19 10:46:05;;;;;;;14.35;11.43;;;27.00;65.50;;;;;;4989031;28;20038;-54
2024/02/19 10:48:32;;;;;;;12.75;11.55;;;27.80;66.00;;;;;;4954337;28;20042;-54
2024/02/19 10:50:58;;;;;;;15.77;11.38;;;27.60;65.40;;;;;;4938283;28;20394;-55
2024/02/19 10:53:28;;;;;;;11.73;10.52;;;28.00;65.70;;;;;;4936780;28;20571;-56
2024/02/19 10:56:17;;;;;;;8.90;8.00;;;28.60;65.70;;;;;;4965437;28;20095;-52
2024/02/19 10:58:53;;;;;;;6.95;6.25;;;28.00;64.30;;;;;;4968746;28;20018;-59
2024/02/19 11:01:21;;;;;;;5.28;4.55;;;26.60;63.90;;;;;;4927445;28;20034;-66
2024/02/19 11:03:46;;;;;;;8.13;5.88;;;27.00;63.40;;;;;;4963222;28;20050;-60
2024/02/19 11:06:15;;;;;;;5.82;5.22;;;27.30;63.40;;;;;;4963881;28;20026;-57
2024/02/19 11:08:53;;;;;;;7.80;6.05;;;26.80;63.40;;;;;;4935248;28;20050;-58
2024/02/19 11:11:22;;;;;;;9.27;5.90;;;26.50;64.00;;;;;;4959034;28;20041;-55
2024/02/19 11:13:48;;;;;;;5.10;4.60;;;26.00;64.00;;;;;;4970890;28;20038;-57
2024/02/19 11:16:18;;;;;;;7.25;6.50;;;26.50;64.30;;;;;;4966712;28;20031;-56
2024/02/19 11:18:44;;;;;;;6.63;4.38;;;26.60;64.00;;;;;;4946251;28;20040;-52
2024/02/19 11:21:10;;;;;;;4.80;4.20;;;26.90;63.80;;;;;;4963688;28;20034;-58
2024/02/19 11:23:37;;;;;;;6.50;5.07;;;27.20;63.70;;;;;;4969607;28;20054;-52
2024/02/19 11:26:03;;;;;;;4.65;4.25;;;27.30;63.20;;;;;;4964454;28;20030;-54
2024/02/19 11:28:33;;;;;;;4.80;4.32;;;25.60;62.80;;;;;;4969369;28;20070;-54
2024/02/19 11:31:01;;;;;;;4.68;4.13;;;25.20;63.30;;;;;;4965121;28;20038;-56
2024/02/19 11:33:27;;;;;;;5.25;3.83;;;25.20;63.80;;;;;;4925370;28;20051;-53
2024/02/19 11:35:56;;;;;;;6.65;4.70;;;25.20;64.50;;;;;;4961714;28;20538;-54
2024/02/19 11:38:24;;;;;;;4.80;4.28;;;26.10;64.50;;;;;;4968472;28;20039;-59
2024/02/19 11:40:51;;;;;;;8.95;4.60;;;26.20;64.50;;;;;;4964841;28;20026;-61
2024/02/19 11:43:17;;;;;;;11.25;5.07;;;25.00;64.00;;;;;;4960459;28;20027;-52
2024/02/19 11:45:43;;;;;;;11.93;5.60;;;24.10;64.70;;;;;;4957272;28;20035;-57
2024/02/19 11:48:09;;;;;;;5.25;4.63;;;23.80;65.10;;;;;;4969612;28;20035;-53
2024/02/19 11:50:34;;;;;;;11.05;5.18;;;24.10;65.60;;;;;;4966725;28;20119;-55
2024/02/19 11:53:02;;;;;;;6.25;4.60;;;25.20;65.70;;;;;;4926286;28;20046;-64
2024/02/19 11:55:29;;;;;;;12.18;5.22;;;;;;;;;;4975261;28;20525;-56
2024/02/19 11:57:56;;;;;;;8.75;5.18;;;26.00;88.90;;;;;;4989817;28;20049;-58
2024/02/19 12:00:22;;;;;;;7.10;4.95;;;26.20;64.80;;;;;;4981364;28;20049;-55
2024/02/19 12:02:51;;;;;;;5.57;4.78;;;26.30;64.50;;;;;;4980135;28;20475;-50
2024/02/19 12:05:18;;;;;;;9.20;7.82;;;;;;;;;;4987479;28;20043;-55
2024/02/19 12:07:44;;;;;;;15.50;5.28;;;24.90;64.00;;;;;;4981667;28;20089;-49
2024/02/19 12:10:11;;;;;;;7.40;5.07;;;24.30;64.90;;;;;;4978120;28;20478;-52
2024/02/19 12:12:40;;;;;;;8.75;5.47;;;23.80;65.70;;;;;;4984243;28;20045;-53
2024/02/19 12:15:11;;;;;;;8.15;5.53;;;23.90;66.20;;;;;;4980827;28;20116;-55
2024/02/19 12:17:38;;;;;;;6.57;4.73;;;;;;;;;;4981033;28;20660;-56
2024/02/19 12:20:05;;;;;;;13.48;10.18;;;22.60;65.70;;;;;;4983288;28;20070;-64
2024/02/19 12:22:32;;;;;;;5.70;5.10;;;;;;;;;;4947924;28;20497;-58
2024/02/19 12:24:58;;;;;;;5.70;4.68;;;;;;;;;;4989490;28;20387;-57
2024/02/19 12:27:24;;;;;;;6.65;5.05;;;22.00;66.40;;;;;;4965248;28;20047;-54
2024/02/19 12:29:52;;;;;;;5.40;4.60;;;22.00;67.20;;;;;;4943792;28;20375;-56
2024/02/19 12:32:19;;;;;;;6.05;5.00;;;22.00;67.20;;;;;;4948305;28;20130;-53
2024/02/19 12:34:45;;;;;;;6.70;4.82;;;22.40;67.30;;;;;;4950069;28;20545;-59
2024/02/19 12:37:11;;;;;;;5.38;4.72;;;22.70;66.80;;;;;;4950150;28;20065;-55
2024/02/19 12:39:58;;;;;;;6.20;4.93;;;23.40;66.30;;;;;;4944731;29;20039;-50
2024/02/19 12:42:24;;;;;;;9.88;6.20;;;22.20;66.30;;;;;;4938092;29;20075;-56
2024/02/19 12:44:49;;;;;;;10.25;6.40;;;22.70;67.20;;;;;;4933369;29;20073;-56
2024/02/19 12:47:15;;;;;;;6.28;5.30;;;22.50;67.10;;;;;;4945910;29;20039;-56
2024/02/19 12:49:41;;;;;;;6.82;5.00;;;22.20;67.30;;;;;;4943027;29;20031;-51
2024/02/19 12:52:08;;;;;;;6.15;5.10;;;;;;;;;;4944384;29;20122;-57
2024/02/19 12:54:34;;;;;;;6.50;5.00;;;21.90;89.40;;;;;;4939556;29;20087;-55